sensor_id;sensor_type;location;lat;lon;timestamp;P1;durP1;ratioP1;P2;durP2;ratioP2
3333;SDS011;1679;50.392;8.008;2022-09-03T00:02:40;1.70;;;1.40;;
3333;SDS011;1679;50.392;8.008;2022-09-03T00:08:28;3.40;;;1.63;;
3333;SDS011;1679;50.392;8.008;2022-09-03T00:11:13;2.23;;;1.70;;
3333;SDS011;1679;50.392;8.008;2022-09-03T00:13:51;1.67;;;1.57;;
3333;SDS011;1679;50.392;8.008;2022-09-03T00:16:23;1.50;;;1.40;;
3333;SDS011;1679;50.392;8.008;2022-09-03T00:18:55;1.57;;;1.40;;
3333;SDS011;1679;50.392;8.008;2022-09-03T00:23:58;2.10;;;1.90;;
3333;SDS011;1679;50.392;8.008;2022-09-03T00:26:26;1.87;;;1.50;;
3333;SDS011;1679;50.392;8.008;2022-09-03T00:29:18;3.10;;;1.83;;
3333;SDS011;1679;50.392;8.008;2022-09-03T00:31:46;2.03;;;1.50;;
3333;SDS011;1679;50.392;8.008;2022-09-03T00:34:18;1.60;;;1.50;;
3333;SDS011;1679;50.392;8.008;2022-09-03T00:36:51;1.63;;;1.53;;
3333;SDS011;1679;50.392;8.008;2022-09-03T00:39:21;1.50;;;1.40;;
3333;SDS011;1679;50.392;8.008;2022-09-03T00:41:55;1.57;;;1.37;;
3333;SDS011;1679;50.392;8.008;2022-09-03T00:44:48;2.53;;;1.40;;
3333;SDS011;1679;50.392;8.008;2022-09-03T00:54:02;1.43;;;1.33;;
3333;SDS011;1679;50.392;8.008;2022-09-03T00:59:13;1.60;;;1.50;;
3333;SDS011;1679;50.392;8.008;2022-09-03T01:02:11;1.80;;;1.40;;
3333;SDS011;1679;50.392;8.008;2022-09-03T01:07:40;1.77;;;1.67;;
3333;SDS011;1679;50.392;8.008;2022-09-03T01:10:23;1.77;;;1.37;;
3333;SDS011;1679;50.392;8.008;2022-09-03T01:15:35;1.67;;;1.57;;
3333;SDS011;1679;50.392;8.008;2022-09-03T01:18:30;1.70;;;1.60;;
3333;SDS011;1679;50.392;8.008;2022-09-03T01:21:11;3.37;;;1.70;;
3333;SDS011;1679;50.392;8.008;2022-09-03T01:24:13;3.30;;;1.50;;
3333;SDS011;1679;50.392;8.008;2022-09-03T01:27:02;1.40;;;1.30;;
3333;SDS011;1679;50.392;8.008;2022-09-03T01:32:13;1.90;;;1.80;;
3333;SDS011;1679;50.392;8.008;2022-09-03T01:34:44;2.30;;;1.30;;
3333;SDS011;1679;50.392;8.008;2022-09-03T01:40:26;1.73;;;1.63;;
3333;SDS011;1679;50.392;8.008;2022-09-03T01:45:29;1.70;;;1.60;;
3333;SDS011;1679;50.392;8.008;2022-09-03T01:53:27;1.60;;;1.33;;
3333;SDS011;1679;50.392;8.008;2022-09-03T01:59:19;2.00;;;1.60;;
3333;SDS011;1679;50.392;8.008;2022-09-03T02:02:00;1.57;;;1.47;;
3333;SDS011;1679;50.392;8.008;2022-09-03T02:04:30;1.47;;;1.37;;
3333;SDS011;1679;50.392;8.008;2022-09-03T02:06:56;3.20;;;2.00;;
3333;SDS011;1679;50.392;8.008;2022-09-03T02:09:24;1.50;;;1.30;;
3333;SDS011;1679;50.392;8.008;2022-09-03T02:11:52;1.60;;;1.50;;
3333;SDS011;1679;50.392;8.008;2022-09-03T02:14:24;2.07;;;1.87;;
3333;SDS011;1679;50.392;8.008;2022-09-03T02:16:51;1.60;;;1.50;;
3333;SDS011;1679;50.392;8.008;2022-09-03T02:19:18;5.20;;;1.90;;
3333;SDS011;1679;50.392;8.008;2022-09-03T02:21:49;2.90;;;1.50;;
3333;SDS011;1679;50.392;8.008;2022-09-03T02:24:17;1.70;;;1.60;;
3333;SDS011;1679;50.392;8.008;2022-09-03T02:26:43;1.67;;;1.40;;
3333;SDS011;1679;50.392;8.008;2022-09-03T02:29:09;1.63;;;1.53;;
3333;SDS011;1679;50.392;8.008;2022-09-03T02:31:35;1.90;;;1.80;;
3333;SDS011;1679;50.392;8.008;2022-09-03T02:34:01;4.60;;;1.70;;
3333;SDS011;1679;50.392;8.008;2022-09-03T02:36:28;1.77;;;1.67;;
3333;SDS011;1679;50.392;8.008;2022-09-03T02:38:56;1.60;;;1.50;;
3333;SDS011;1679;50.392;8.008;2022-09-03T02:41:22;1.70;;;1.60;;
3333;SDS011;1679;50.392;8.008;2022-09-03T02:44:05;2.10;;;1.90;;
3333;SDS011;1679;50.392;8.008;2022-09-03T02:46:52;1.70;;;1.60;;
3333;SDS011;1679;50.392;8.008;2022-09-03T02:49:21;1.33;;;1.23;;
3333;SDS011;1679;50.392;8.008;2022-09-03T02:51:47;1.70;;;1.60;;
3333;SDS011;1679;50.392;8.008;2022-09-03T02:54:12;1.70;;;1.60;;
3333;SDS011;1679;50.392;8.008;2022-09-03T02:56:38;2.50;;;1.30;;
3333;SDS011;1679;50.392;8.008;2022-09-03T02:59:05;3.07;;;1.70;;
3333;SDS011;1679;50.392;8.008;2022-09-03T03:01:32;2.90;;;1.70;;
3333;SDS011;1679;50.392;8.008;2022-09-03T03:03:58;3.90;;;1.73;;
3333;SDS011;1679;50.392;8.008;2022-09-03T03:06:24;6.33;;;1.73;;
3333;SDS011;1679;50.392;8.008;2022-09-03T03:08:50;1.87;;;1.77;;
3333;SDS011;1679;50.392;8.008;2022-09-03T03:11:16;2.10;;;1.60;;
3333;SDS011;1679;50.392;8.008;2022-09-03T03:13:44;1.93;;;1.67;;
3333;SDS011;1679;50.392;8.008;2022-09-03T03:16:10;2.27;;;1.37;;
3333;SDS011;1679;50.392;8.008;2022-09-03T03:18:37;5.00;;;1.30;;
3333;SDS011;1679;50.392;8.008;2022-09-03T03:21:06;1.83;;;1.73;;
3333;SDS011;1679;50.392;8.008;2022-09-03T03:23:34;1.60;;;1.50;;
3333;SDS011;1679;50.392;8.008;2022-09-03T03:26:01;1.67;;;1.57;;
3333;SDS011;1679;50.392;8.008;2022-09-03T03:28:28;1.90;;;1.80;;
3333;SDS011;1679;50.392;8.008;2022-09-03T03:30:58;1.80;;;1.70;;
3333;SDS011;1679;50.392;8.008;2022-09-03T03:33:31;3.30;;;1.60;;
3333;SDS011;1679;50.392;8.008;2022-09-03T03:35:57;4.90;;;1.40;;
3333;SDS011;1679;50.392;8.008;2022-09-03T03:38:22;1.63;;;1.53;;
3333;SDS011;1679;50.392;8.008;2022-09-03T03:40:48;1.60;;;1.50;;
3333;SDS011;1679;50.392;8.008;2022-09-03T03:43:13;1.80;;;1.70;;
3333;SDS011;1679;50.392;8.008;2022-09-03T03:45:39;2.10;;;1.90;;
3333;SDS011;1679;50.392;8.008;2022-09-03T03:48:04;1.83;;;1.67;;
3333;SDS011;1679;50.392;8.008;2022-09-03T03:50:30;2.10;;;1.40;;
3333;SDS011;1679;50.392;8.008;2022-09-03T03:52:58;4.03;;;1.60;;
3333;SDS011;1679;50.392;8.008;2022-09-03T03:55:25;3.57;;;1.67;;
3333;SDS011;1679;50.392;8.008;2022-09-03T03:57:50;1.70;;;1.60;;
3333;SDS011;1679;50.392;8.008;2022-09-03T04:00:16;1.70;;;1.60;;
3333;SDS011;1679;50.392;8.008;2022-09-03T04:02:41;3.30;;;2.17;;
3333;SDS011;1679;50.392;8.008;2022-09-03T04:05:07;1.60;;;1.50;;
3333;SDS011;1679;50.392;8.008;2022-09-03T04:07:33;2.43;;;1.50;;
3333;SDS011;1679;50.392;8.008;2022-09-03T04:09:58;1.70;;;1.60;;
3333;SDS011;1679;50.392;8.008;2022-09-03T04:12:25;1.70;;;1.60;;
3333;SDS011;1679;50.392;8.008;2022-09-03T04:14:52;4.17;;;1.70;;
3333;SDS011;1679;50.392;8.008;2022-09-03T04:17:17;2.80;;;1.37;;
3333;SDS011;1679;50.392;8.008;2022-09-03T04:19:43;3.37;;;1.50;;
3333;SDS011;1679;50.392;8.008;2022-09-03T04:22:12;1.70;;;1.60;;
3333;SDS011;1679;50.392;8.008;2022-09-03T04:24:39;1.83;;;1.73;;
3333;SDS011;1679;50.392;8.008;2022-09-03T04:27:05;2.00;;;1.50;;
3333;SDS011;1679;50.392;8.008;2022-09-03T04:29:31;1.90;;;1.80;;
3333;SDS011;1679;50.392;8.008;2022-09-03T04:31:56;2.73;;;1.67;;
3333;SDS011;1679;50.392;8.008;2022-09-03T04:34:51;2.40;;;1.60;;
3333;SDS011;1679;50.392;8.008;2022-09-03T04:37:16;1.77;;;1.50;;
3333;SDS011;1679;50.392;8.008;2022-09-03T04:39:44;1.73;;;1.63;;
3333;SDS011;1679;50.392;8.008;2022-09-03T04:42:09;1.60;;;1.50;;
3333;SDS011;1679;50.392;8.008;2022-09-03T04:44:35;1.80;;;1.70;;
3333;SDS011;1679;50.392;8.008;2022-09-03T04:47:02;1.83;;;1.73;;
3333;SDS011;1679;50.392;8.008;2022-09-03T04:49:28;3.47;;;1.57;;
3333;SDS011;1679;50.392;8.008;2022-09-03T04:51:55;3.23;;;1.70;;
3333;SDS011;1679;50.392;8.008;2022-09-03T04:54:21;2.10;;;1.40;;
3333;SDS011;1679;50.392;8.008;2022-09-03T04:56:47;1.40;;;1.30;;
3333;SDS011;1679;50.392;8.008;2022-09-03T04:59:14;3.93;;;1.80;;
3333;SDS011;1679;50.392;8.008;2022-09-03T05:01:39;2.57;;;1.70;;
3333;SDS011;1679;50.392;8.008;2022-09-03T05:04:07;1.60;;;1.50;;
3333;SDS011;1679;50.392;8.008;2022-09-03T05:06:33;1.80;;;1.70;;
3333;SDS011;1679;50.392;8.008;2022-09-03T05:09:00;2.30;;;1.50;;
3333;SDS011;1679;50.392;8.008;2022-09-03T05:11:27;2.73;;;1.70;;
3333;SDS011;1679;50.392;8.008;2022-09-03T05:13:55;1.93;;;1.60;;
3333;SDS011;1679;50.392;8.008;2022-09-03T05:16:22;4.13;;;2.10;;
3333;SDS011;1679;50.392;8.008;2022-09-03T05:18:52;3.20;;;1.90;;
3333;SDS011;1679;50.392;8.008;2022-09-03T05:21:19;2.50;;;2.13;;
3333;SDS011;1679;50.392;8.008;2022-09-03T05:23:46;5.53;;;2.20;;
3333;SDS011;1679;50.392;8.008;2022-09-03T05:26:17;2.60;;;1.80;;
3333;SDS011;1679;50.392;8.008;2022-09-03T05:28:45;3.20;;;1.90;;
3333;SDS011;1679;50.392;8.008;2022-09-03T05:31:15;2.37;;;1.53;;
3333;SDS011;1679;50.392;8.008;2022-09-03T05:33:45;4.20;;;2.23;;
3333;SDS011;1679;50.392;8.008;2022-09-03T05:36:13;2.00;;;1.60;;
3333;SDS011;1679;50.392;8.008;2022-09-03T05:38:41;2.80;;;1.80;;
3333;SDS011;1679;50.392;8.008;2022-09-03T05:41:08;3.20;;;2.50;;
3333;SDS011;1679;50.392;8.008;2022-09-03T05:43:34;3.50;;;1.70;;
3333;SDS011;1679;50.392;8.008;2022-09-03T05:46:04;1.97;;;1.70;;
3333;SDS011;1679;50.392;8.008;2022-09-03T05:48:31;2.30;;;1.80;;
3333;SDS011;1679;50.392;8.008;2022-09-03T05:51:04;2.20;;;1.63;;
3333;SDS011;1679;50.392;8.008;2022-09-03T05:53:33;2.57;;;2.47;;
3333;SDS011;1679;50.392;8.008;2022-09-03T05:56:01;3.60;;;1.87;;
3333;SDS011;1679;50.392;8.008;2022-09-03T05:58:30;6.17;;;1.90;;
3333;SDS011;1679;50.392;8.008;2022-09-03T06:03:37;2.33;;;1.70;;
3333;SDS011;1679;50.392;8.008;2022-09-03T06:06:03;2.17;;;1.97;;
3333;SDS011;1679;50.392;8.008;2022-09-03T06:08:29;4.00;;;1.97;;
3333;SDS011;1679;50.392;8.008;2022-09-03T06:10:58;3.70;;;2.23;;
3333;SDS011;1679;50.392;8.008;2022-09-03T06:13:24;2.33;;;2.10;;
3333;SDS011;1679;50.392;8.008;2022-09-03T06:15:55;3.20;;;2.53;;
3333;SDS011;1679;50.392;8.008;2022-09-03T06:18:21;3.10;;;2.50;;
3333;SDS011;1679;50.392;8.008;2022-09-03T06:20:57;2.77;;;2.57;;
3333;SDS011;1679;50.392;8.008;2022-09-03T06:23:24;4.13;;;3.00;;
3333;SDS011;1679;50.392;8.008;2022-09-03T06:26:04;2.40;;;2.20;;
3333;SDS011;1679;50.392;8.008;2022-09-03T06:28:35;3.40;;;2.50;;
3333;SDS011;1679;50.392;8.008;2022-09-03T06:31:02;3.40;;;2.57;;
3333;SDS011;1679;50.392;8.008;2022-09-03T06:33:30;2.83;;;2.27;;
3333;SDS011;1679;50.392;8.008;2022-09-03T06:36:00;3.27;;;2.30;;
3333;SDS011;1679;50.392;8.008;2022-09-03T06:38:28;3.97;;;2.40;;
3333;SDS011;1679;50.392;8.008;2022-09-03T06:40:57;3.10;;;2.83;;
3333;SDS011;1679;50.392;8.008;2022-09-03T06:43:28;3.20;;;2.50;;
3333;SDS011;1679;50.392;8.008;2022-09-03T06:46:17;2.27;;;2.13;;
3333;SDS011;1679;50.392;8.008;2022-09-03T06:48:43;3.40;;;2.50;;
3333;SDS011;1679;50.392;8.008;2022-09-03T06:51:11;4.30;;;2.60;;
3333;SDS011;1679;50.392;8.008;2022-09-03T06:53:45;4.90;;;3.00;;
3333;SDS011;1679;50.392;8.008;2022-09-03T06:56:14;2.83;;;2.63;;
3333;SDS011;1679;50.392;8.008;2022-09-03T06:58:42;2.70;;;2.50;;
3333;SDS011;1679;50.392;8.008;2022-09-03T07:01:11;3.30;;;2.93;;
3333;SDS011;1679;50.392;8.008;2022-09-03T07:03:39;3.43;;;2.87;;
3333;SDS011;1679;50.392;8.008;2022-09-03T07:06:06;3.47;;;2.57;;
3333;SDS011;1679;50.392;8.008;2022-09-03T07:08:37;3.10;;;2.90;;
3333;SDS011;1679;50.392;8.008;2022-09-03T07:11:03;3.60;;;3.40;;
3333;SDS011;1679;50.392;8.008;2022-09-03T07:13:36;3.80;;;2.90;;
3333;SDS011;1679;50.392;8.008;2022-09-03T07:16:06;3.57;;;3.37;;
3333;SDS011;1679;50.392;8.008;2022-09-03T07:18:34;2.97;;;2.77;;
3333;SDS011;1679;50.392;8.008;2022-09-03T07:21:00;3.27;;;3.03;;
3333;SDS011;1679;50.392;8.008;2022-09-03T07:23:32;3.00;;;2.80;;
3333;SDS011;1679;50.392;8.008;2022-09-03T07:25:59;4.03;;;3.17;;
3333;SDS011;1679;50.392;8.008;2022-09-03T07:28:27;3.80;;;2.50;;
3333;SDS011;1679;50.392;8.008;2022-09-03T07:30:54;2.93;;;2.60;;
3333;SDS011;1679;50.392;8.008;2022-09-03T07:33:25;3.43;;;3.23;;
3333;SDS011;1679;50.392;8.008;2022-09-03T07:35:53;3.47;;;3.27;;
3333;SDS011;1679;50.392;8.008;2022-09-03T07:38:18;3.00;;;2.87;;
3333;SDS011;1679;50.392;8.008;2022-09-03T07:40:47;4.47;;;4.10;;
3333;SDS011;1679;50.392;8.008;2022-09-03T07:43:13;4.83;;;3.30;;
3333;SDS011;1679;50.392;8.008;2022-09-03T07:45:38;4.07;;;3.67;;
3333;SDS011;1679;50.392;8.008;2022-09-03T07:48:05;5.17;;;4.10;;
3333;SDS011;1679;50.392;8.008;2022-09-03T07:50:31;3.90;;;3.43;;
3333;SDS011;1679;50.392;8.008;2022-09-03T07:53:03;4.97;;;4.07;;
3333;SDS011;1679;50.392;8.008;2022-09-03T07:55:28;3.87;;;3.43;;
3333;SDS011;1679;50.392;8.008;2022-09-03T07:57:55;4.10;;;3.03;;
3333;SDS011;1679;50.392;8.008;2022-09-03T08:00:21;4.80;;;3.40;;
3333;SDS011;1679;50.392;8.008;2022-09-03T08:02:47;3.57;;;2.80;;
3333;SDS011;1679;50.392;8.008;2022-09-03T08:05:12;3.47;;;3.03;;
3333;SDS011;1679;50.392;8.008;2022-09-03T08:07:38;3.27;;;3.00;;
3333;SDS011;1679;50.392;8.008;2022-09-03T08:10:03;3.87;;;3.57;;
3333;SDS011;1679;50.392;8.008;2022-09-03T08:12:30;3.97;;;3.57;;
3333;SDS011;1679;50.392;8.008;2022-09-03T08:14:56;4.10;;;3.10;;
3333;SDS011;1679;50.392;8.008;2022-09-03T08:17:22;4.33;;;3.93;;
3333;SDS011;1679;50.392;8.008;2022-09-03T08:19:47;5.90;;;4.20;;
3333;SDS011;1679;50.392;8.008;2022-09-03T08:22:13;6.90;;;3.57;;
3333;SDS011;1679;50.392;8.008;2022-09-03T08:24:39;3.47;;;3.17;;
3333;SDS011;1679;50.392;8.008;2022-09-03T08:27:05;3.60;;;3.30;;
3333;SDS011;1679;50.392;8.008;2022-09-03T08:29:31;4.30;;;3.20;;
3333;SDS011;1679;50.392;8.008;2022-09-03T08:31:56;4.30;;;4.00;;
3333;SDS011;1679;50.392;8.008;2022-09-03T08:34:21;4.77;;;4.33;;
3333;SDS011;1679;50.392;8.008;2022-09-03T08:36:47;4.93;;;3.70;;
3333;SDS011;1679;50.392;8.008;2022-09-03T08:39:14;5.77;;;3.87;;
3333;SDS011;1679;50.392;8.008;2022-09-03T08:44:18;4.70;;;4.37;;
3333;SDS011;1679;50.392;8.008;2022-09-03T08:49:31;4.20;;;3.90;;
3333;SDS011;1679;50.392;8.008;2022-09-03T08:52:04;4.60;;;4.17;;
3333;SDS011;1679;50.392;8.008;2022-09-03T08:54:36;5.43;;;4.50;;
3333;SDS011;1679;50.392;8.008;2022-09-03T08:57:02;4.27;;;3.90;;
3333;SDS011;1679;50.392;8.008;2022-09-03T08:59:31;4.17;;;3.87;;
3333;SDS011;1679;50.392;8.008;2022-09-03T09:07:24;4.10;;;3.80;;
3333;SDS011;1679;50.392;8.008;2022-09-03T09:12:28;3.90;;;3.57;;
3333;SDS011;1679;50.392;8.008;2022-09-03T09:15:11;4.13;;;3.90;;
3333;SDS011;1679;50.392;8.008;2022-09-03T09:21:21;3.70;;;3.50;;
3333;SDS011;1679;50.392;8.008;2022-09-03T09:24:23;3.70;;;3.50;;
3333;SDS011;1679;50.392;8.008;2022-09-03T09:26:59;4.47;;;4.17;;
3333;SDS011;1679;50.392;8.008;2022-09-03T09:29:30;4.00;;;3.70;;
3333;SDS011;1679;50.392;8.008;2022-09-03T09:31:58;4.17;;;3.80;;
3333;SDS011;1679;50.392;8.008;2022-09-03T09:34:25;3.73;;;3.50;;
3333;SDS011;1679;50.392;8.008;2022-09-03T09:36:52;3.53;;;3.33;;
3333;SDS011;1679;50.392;8.008;2022-09-03T09:39:19;5.20;;;3.40;;
3333;SDS011;1679;50.392;8.008;2022-09-03T09:44:45;3.10;;;3.00;;
3333;SDS011;1679;50.392;8.008;2022-09-03T09:49:52;3.50;;;3.30;;
3333;SDS011;1679;50.392;8.008;2022-09-03T09:52:26;3.87;;;3.57;;
3333;SDS011;1679;50.392;8.008;2022-09-03T09:55:05;3.80;;;3.13;;
3333;SDS011;1679;50.392;8.008;2022-09-03T09:57:32;3.87;;;3.57;;
3333;SDS011;1679;50.392;8.008;2022-09-03T10:02:47;3.03;;;2.93;;
3333;SDS011;1679;50.392;8.008;2022-09-03T10:07:55;5.20;;;4.20;;
3333;SDS011;1679;50.392;8.008;2022-09-03T10:10:24;3.30;;;3.13;;
3333;SDS011;1679;50.392;8.008;2022-09-03T10:12:58;4.17;;;3.87;;
3333;SDS011;1679;50.392;8.008;2022-09-03T10:18:35;3.80;;;3.60;;
3333;SDS011;1679;50.392;8.008;2022-09-03T10:21:17;4.73;;;4.33;;
3333;SDS011;1679;50.392;8.008;2022-09-03T10:26:45;4.33;;;4.13;;
3333;SDS011;1679;50.392;8.008;2022-09-03T10:29:11;5.10;;;4.80;;
3333;SDS011;1679;50.392;8.008;2022-09-03T10:39:41;4.90;;;4.50;;
3333;SDS011;1679;50.392;8.008;2022-09-03T10:42:33;4.60;;;4.20;;
3333;SDS011;1679;50.392;8.008;2022-09-03T10:45:39;3.73;;;3.63;;
3333;SDS011;1679;50.392;8.008;2022-09-03T10:48:31;4.30;;;4.00;;
3333;SDS011;1679;50.392;8.008;2022-09-03T10:51:04;5.00;;;4.60;;
3333;SDS011;1679;50.392;8.008;2022-09-03T10:56:46;3.93;;;3.63;;
3333;SDS011;1679;50.392;8.008;2022-09-03T11:07:11;3.23;;;3.03;;
3333;SDS011;1679;50.392;8.008;2022-09-03T11:09:40;3.50;;;3.20;;
3333;SDS011;1679;50.392;8.008;2022-09-03T11:12:19;4.87;;;3.03;;
3333;SDS011;1679;50.392;8.008;2022-09-03T11:14:51;3.23;;;3.03;;
3333;SDS011;1679;50.392;8.008;2022-09-03T11:17:47;3.27;;;3.00;;
3333;SDS011;1679;50.392;8.008;2022-09-03T11:20:18;4.37;;;2.70;;
3333;SDS011;1679;50.392;8.008;2022-09-03T11:22:45;2.50;;;2.40;;
3333;SDS011;1679;50.392;8.008;2022-09-03T11:25:14;2.87;;;2.67;;
3333;SDS011;1679;50.392;8.008;2022-09-03T11:27:57;5.67;;;2.60;;
3333;SDS011;1679;50.392;8.008;2022-09-03T11:33:29;2.63;;;2.47;;
3333;SDS011;1679;50.392;8.008;2022-09-03T11:35:58;2.30;;;2.20;;
3333;SDS011;1679;50.392;8.008;2022-09-03T11:38:26;2.40;;;2.20;;
3333;SDS011;1679;50.392;8.008;2022-09-03T11:41:14;2.60;;;2.50;;
3333;SDS011;1679;50.392;8.008;2022-09-03T11:44:17;2.57;;;2.37;;
3333;SDS011;1679;50.392;8.008;2022-09-03T11:46:56;2.47;;;2.37;;
3333;SDS011;1679;50.392;8.008;2022-09-03T11:49:31;2.20;;;2.00;;
3333;SDS011;1679;50.392;8.008;2022-09-03T11:52:07;6.70;;;2.40;;
3333;SDS011;1679;50.392;8.008;2022-09-03T11:54:44;2.70;;;2.00;;
3333;SDS011;1679;50.392;8.008;2022-09-03T11:57:26;2.30;;;2.20;;
3333;SDS011;1679;50.392;8.008;2022-09-03T12:02:53;4.60;;;2.20;;
3333;SDS011;1679;50.392;8.008;2022-09-03T12:08:11;2.40;;;2.20;;
3333;SDS011;1679;50.392;8.008;2022-09-03T12:11:23;2.90;;;2.70;;
3333;SDS011;1679;50.392;8.008;2022-09-03T12:22:17;2.50;;;2.40;;
3333;SDS011;1679;50.392;8.008;2022-09-03T12:24:44;2.63;;;2.50;;
3333;SDS011;1679;50.392;8.008;2022-09-03T12:27:16;2.87;;;2.60;;
3333;SDS011;1679;50.392;8.008;2022-09-03T12:29:55;3.37;;;2.80;;
3333;SDS011;1679;50.392;8.008;2022-09-03T12:32:24;5.70;;;3.30;;
3333;SDS011;1679;50.392;8.008;2022-09-03T12:35:11;2.80;;;2.60;;
3333;SDS011;1679;50.392;8.008;2022-09-03T12:37:40;3.50;;;2.50;;
3333;SDS011;1679;50.392;8.008;2022-09-03T12:40:17;3.20;;;3.00;;
3333;SDS011;1679;50.392;8.008;2022-09-03T12:42:46;2.90;;;2.40;;
3333;SDS011;1679;50.392;8.008;2022-09-03T12:45:12;2.90;;;2.57;;
3333;SDS011;1679;50.392;8.008;2022-09-03T12:47:41;2.60;;;2.40;;
3333;SDS011;1679;50.392;8.008;2022-09-03T12:50:08;2.67;;;2.57;;
3333;SDS011;1679;50.392;8.008;2022-09-03T12:52:39;2.40;;;2.27;;
3333;SDS011;1679;50.392;8.008;2022-09-03T13:00:28;3.00;;;2.80;;
3333;SDS011;1679;50.392;8.008;2022-09-03T13:03:04;2.57;;;2.47;;
3333;SDS011;1679;50.392;8.008;2022-09-03T13:05:33;2.47;;;2.37;;
3333;SDS011;1679;50.392;8.008;2022-09-03T13:08:07;2.37;;;2.17;;
3333;SDS011;1679;50.392;8.008;2022-09-03T13:10:37;3.00;;;2.30;;
3333;SDS011;1679;50.392;8.008;2022-09-03T13:13:28;2.83;;;2.60;;
3333;SDS011;1679;50.392;8.008;2022-09-03T13:16:14;3.50;;;3.20;;
3333;SDS011;1679;50.392;8.008;2022-09-03T13:19:01;2.80;;;2.60;;
3333;SDS011;1679;50.392;8.008;2022-09-03T13:22:19;3.20;;;3.00;;
3333;SDS011;1679;50.392;8.008;2022-09-03T13:27:25;3.10;;;2.90;;
3333;SDS011;1679;50.392;8.008;2022-09-03T13:30:07;2.73;;;2.63;;
3333;SDS011;1679;50.392;8.008;2022-09-03T13:35:20;2.90;;;2.80;;
3333;SDS011;1679;50.392;8.008;2022-09-03T13:37:48;2.87;;;2.77;;
3333;SDS011;1679;50.392;8.008;2022-09-03T13:40:35;2.70;;;2.50;;
3333;SDS011;1679;50.392;8.008;2022-09-03T13:43:13;3.60;;;3.10;;
3333;SDS011;1679;50.392;8.008;2022-09-03T13:45:55;3.03;;;2.83;;
3333;SDS011;1679;50.392;8.008;2022-09-03T13:54:19;2.70;;;2.60;;
3333;SDS011;1679;50.392;8.008;2022-09-03T13:59:28;2.93;;;2.73;;
3333;SDS011;1679;50.392;8.008;2022-09-03T14:02:25;3.30;;;3.10;;
3333;SDS011;1679;50.392;8.008;2022-09-03T14:07:44;2.97;;;2.77;;
3333;SDS011;1679;50.392;8.008;2022-09-03T14:16:34;2.80;;;2.60;;
3333;SDS011;1679;50.392;8.008;2022-09-03T14:21:58;3.27;;;2.97;;
3333;SDS011;1679;50.392;8.008;2022-09-03T14:24:33;2.83;;;2.67;;
3333;SDS011;1679;50.392;8.008;2022-09-03T14:27:23;2.80;;;2.60;;
3333;SDS011;1679;50.392;8.008;2022-09-03T14:29:57;2.43;;;2.33;;
3333;SDS011;1679;50.392;8.008;2022-09-03T14:40:51;4.27;;;2.33;;
3333;SDS011;1679;50.392;8.008;2022-09-03T14:43:35;3.13;;;2.93;;
3333;SDS011;1679;50.392;8.008;2022-09-03T14:46:31;3.37;;;2.90;;
3333;SDS011;1679;50.392;8.008;2022-09-03T14:49:37;3.53;;;2.97;;
3333;SDS011;1679;50.392;8.008;2022-09-03T15:00:46;3.10;;;2.90;;
3333;SDS011;1679;50.392;8.008;2022-09-03T15:03:30;2.70;;;2.60;;
3333;SDS011;1679;50.392;8.008;2022-09-03T15:06:13;2.97;;;2.77;;
3333;SDS011;1679;50.392;8.008;2022-09-03T15:11:53;2.73;;;2.53;;
3333;SDS011;1679;50.392;8.008;2022-09-03T15:14:26;3.50;;;3.20;;
3333;SDS011;1679;50.392;8.008;2022-09-03T15:17:04;2.80;;;2.70;;
3333;SDS011;1679;50.392;8.008;2022-09-03T15:28:00;3.27;;;3.17;;
3333;SDS011;1679;50.392;8.008;2022-09-03T15:30:38;3.53;;;3.20;;
3333;SDS011;1679;50.392;8.008;2022-09-03T15:33:11;3.30;;;3.10;;
3333;SDS011;1679;50.392;8.008;2022-09-03T15:35:58;3.03;;;2.70;;
3333;SDS011;1679;50.392;8.008;2022-09-03T15:43:59;3.30;;;3.00;;
3333;SDS011;1679;50.392;8.008;2022-09-03T15:46:33;3.07;;;2.83;;
3333;SDS011;1679;50.392;8.008;2022-09-03T15:49:33;3.43;;;3.23;;
3333;SDS011;1679;50.392;8.008;2022-09-03T15:55:09;4.43;;;3.60;;
3333;SDS011;1679;50.392;8.008;2022-09-03T15:57:50;4.03;;;3.50;;
3333;SDS011;1679;50.392;8.008;2022-09-03T16:00:40;4.10;;;3.80;;
3333;SDS011;1679;50.392;8.008;2022-09-03T16:03:18;3.13;;;2.97;;
3333;SDS011;1679;50.392;8.008;2022-09-03T16:05:55;4.17;;;3.80;;
3333;SDS011;1679;50.392;8.008;2022-09-03T16:19:30;3.17;;;2.90;;
3333;SDS011;1679;50.392;8.008;2022-09-03T16:22:06;3.83;;;3.53;;
3333;SDS011;1679;50.392;8.008;2022-09-03T16:24:45;3.90;;;3.70;;
3333;SDS011;1679;50.392;8.008;2022-09-03T16:27:21;4.20;;;3.93;;
3333;SDS011;1679;50.392;8.008;2022-09-03T16:35:27;3.23;;;3.13;;
3333;SDS011;1679;50.392;8.008;2022-09-03T16:44:00;3.37;;;3.20;;
3333;SDS011;1679;50.392;8.008;2022-09-03T16:46:45;3.70;;;3.50;;
3333;SDS011;1679;50.392;8.008;2022-09-03T16:52:17;3.90;;;3.70;;
3333;SDS011;1679;50.392;8.008;2022-09-03T16:55:17;3.50;;;3.20;;
3333;SDS011;1679;50.392;8.008;2022-09-03T16:57:56;5.23;;;3.47;;
3333;SDS011;1679;50.392;8.008;2022-09-03T17:03:49;3.40;;;3.30;;
3333;SDS011;1679;50.392;8.008;2022-09-03T17:06:26;3.40;;;3.20;;
3333;SDS011;1679;50.392;8.008;2022-09-03T17:09:06;3.33;;;3.03;;
3333;SDS011;1679;50.392;8.008;2022-09-03T17:14:31;3.33;;;3.13;;
3333;SDS011;1679;50.392;8.008;2022-09-03T17:19:51;4.73;;;4.43;;
3333;SDS011;1679;50.392;8.008;2022-09-03T17:22:39;4.97;;;4.57;;
3333;SDS011;1679;50.392;8.008;2022-09-03T17:25:35;4.23;;;3.93;;
3333;SDS011;1679;50.392;8.008;2022-09-03T17:28:22;4.70;;;4.20;;
3333;SDS011;1679;50.392;8.008;2022-09-03T17:31:14;6.00;;;5.60;;
3333;SDS011;1679;50.392;8.008;2022-09-03T17:48:38;6.23;;;5.63;;
3333;SDS011;1679;50.392;8.008;2022-09-03T17:54:11;6.13;;;5.83;;
3333;SDS011;1679;50.392;8.008;2022-09-03T17:56:55;6.10;;;5.70;;
3333;SDS011;1679;50.392;8.008;2022-09-03T17:59:43;7.67;;;7.03;;
3333;SDS011;1679;50.392;8.008;2022-09-03T18:05:08;8.10;;;7.50;;
3333;SDS011;1679;50.392;8.008;2022-09-03T18:10:38;6.10;;;5.73;;
3333;SDS011;1679;50.392;8.008;2022-09-03T18:19:16;8.37;;;7.80;;
3333;SDS011;1679;50.392;8.008;2022-09-03T18:22:30;6.73;;;6.30;;
3333;SDS011;1679;50.392;8.008;2022-09-03T18:25:23;7.00;;;6.60;;
3333;SDS011;1679;50.392;8.008;2022-09-03T18:28:09;7.37;;;6.77;;
3333;SDS011;1679;50.392;8.008;2022-09-03T18:30:58;6.37;;;5.90;;
3333;SDS011;1679;50.392;8.008;2022-09-03T18:33:42;6.80;;;6.30;;
3333;SDS011;1679;50.392;8.008;2022-09-03T18:36:26;7.43;;;6.83;;
3333;SDS011;1679;50.392;8.008;2022-09-03T18:39:14;7.23;;;6.67;;
3333;SDS011;1679;50.392;8.008;2022-09-03T18:42:14;6.97;;;6.57;;
3333;SDS011;1679;50.392;8.008;2022-09-03T18:45:11;7.77;;;7.07;;
3333;SDS011;1679;50.392;8.008;2022-09-03T18:51:18;9.80;;;8.90;;
3333;SDS011;1679;50.392;8.008;2022-09-03T18:54:39;10.33;;;9.30;;
3333;SDS011;1679;50.392;8.008;2022-09-03T19:00:26;8.80;;;8.10;;
3333;SDS011;1679;50.392;8.008;2022-09-03T19:15:51;10.93;;;10.03;;
3333;SDS011;1679;50.392;8.008;2022-09-03T19:24:29;19.10;;;16.93;;
3333;SDS011;1679;50.392;8.008;2022-09-03T19:27:17;11.60;;;10.60;;
3333;SDS011;1679;50.392;8.008;2022-09-03T19:30:10;10.40;;;9.50;;
3333;SDS011;1679;50.392;8.008;2022-09-03T19:33:07;10.23;;;9.53;;
3333;SDS011;1679;50.392;8.008;2022-09-03T19:36:20;9.90;;;9.13;;
3333;SDS011;1679;50.392;8.008;2022-09-03T19:49:10;10.50;;;9.60;;
3333;SDS011;1679;50.392;8.008;2022-09-03T19:54:37;9.40;;;8.80;;
3333;SDS011;1679;50.392;8.008;2022-09-03T19:57:22;12.17;;;11.07;;
3333;SDS011;1679;50.392;8.008;2022-09-03T20:00:08;11.57;;;10.63;;
3333;SDS011;1679;50.392;8.008;2022-09-03T20:02:54;10.90;;;10.00;;
3333;SDS011;1679;50.392;8.008;2022-09-03T20:05:40;12.13;;;11.20;;
3333;SDS011;1679;50.392;8.008;2022-09-03T20:08:25;12.83;;;11.73;;
3333;SDS011;1679;50.392;8.008;2022-09-03T20:11:18;12.60;;;11.50;;
3333;SDS011;1679;50.392;8.008;2022-09-03T20:13:47;13.03;;;11.93;;
3333;SDS011;1679;50.392;8.008;2022-09-03T20:19:20;11.80;;;10.90;;
3333;SDS011;1679;50.392;8.008;2022-09-03T20:24:39;10.33;;;9.43;;
3333;SDS011;1679;50.392;8.008;2022-09-03T20:30:09;12.57;;;11.47;;
3333;SDS011;1679;50.392;8.008;2022-09-03T20:50:02;10.33;;;9.53;;
3333;SDS011;1679;50.392;8.008;2022-09-03T20:55:38;10.00;;;9.20;;
3333;SDS011;1679;50.392;8.008;2022-09-03T21:01:51;9.70;;;9.00;;
3333;SDS011;1679;50.392;8.008;2022-09-03T21:18:21;8.23;;;7.63;;
3333;SDS011;1679;50.392;8.008;2022-09-03T21:21:14;9.70;;;9.10;;
3333;SDS011;1679;50.392;8.008;2022-09-03T21:23:48;9.00;;;8.20;;
3333;SDS011;1679;50.392;8.008;2022-09-03T21:26:30;9.30;;;8.60;;